Richmond, New Zealand
Current Conditions -  °F | °C
As of 8:00 PM on Friday 19 Dec 2014 (Local Time) from NZWN Reporting Station
Overcast Overcast  
Wind Chill: 63°   Ceiling: 600
Heat Index: 63°   Visibility: 6mi
Dew Point: 61°   Wind: 21mph
Humidity: 94%   Direction: 20°NNE
Pressure: 29.97"   Gusts: NA
Location:  41.34°S, 173.19°E
Report Text: NZWN 190800Z AUTO 02018KT 9999 OVC006/// 17/16 Q1015 NOSIG
Loading
Personal Weather Stations






























Interactive Weather Map New forecast layout! Learn more

10-Day Weather Forecast

Advertisements
Track Severe Weather on mobile